Terminal Aerodrome Forecast
Issued by NWS

Home | Current Version | Previous Version | Text Only | Print | Product List | Glossary On
Versions: 1 2 3 4 5 6 7 8 9 10 11 12 13 14 15 16 17 18 19 20
000
FTUS46 KLOX 290543
TAFSBP
TAF
KSBP 290543Z 2906/3006 VRB03KT P6SM OVC006
     FM291200 31004KT 4SM BR OVC003
     FM291600 30004KT P6SM OVC006
     FM291800 29006KT P6SM SKC
     FM292100 30015KT P6SM SKC
     FM300400 30007KT P6SM BKN006=

USA.gov is the U.S. government's official web portal to all federal, state and local government web resources and services.